Feedback
Home > Rebate Center > Cooking > Range Hoods > Rebate Center: Not Approved for Outdoor Use Range Hoods > Approved for Outdoor Use: No
Expand Your Results
Remove Approved for Outdoor Use:
No
Refine Your Results

Technical Details

Energy Star Rated

Yes (2)
No (282)

Voltage

Filters

Are You a
Builder?

Contact us for
special pricing & volume discounts
Get Quote

Rebate Center: Not Approved for Outdoor Use Range Hoods

Sort:
Displaying 121 - 140 of 296 Products
20 40 50 products per page
3 4 5 6 7 8 9 10

Brushed Copper Wall Mount Hood with 3-Speed Blower Options, Hidden Controls, Baffle Filters, Halogen Lamps and Reversible Top/Rear Exhaust

BSLARE30BC 30" Width 01/01/2014 - 03/31/2017 Save Up To $800 Instantly Download
BSLARE36BC 36" Width 01/01/2014 - 03/31/2017 Save Up To $800 Instantly Download
BSLARE42BC 42" Width 01/01/2014 - 03/31/2017 Save Up To $800 Instantly Download
BSLARE48BC 48" Width 01/01/2014 - 03/31/2017 Save Up To $800 Instantly Download
BSLARE54BC 54" Width 01/01/2014 - 03/31/2017 Save Up To $800 Instantly Download
BSLARE60BC 60" Width 01/01/2014 - 03/31/2017 Save Up To $800 Instantly Download
BSLARE66BC 66" Width 01/01/2014 - 03/31/2017 Save Up To $800 Instantly Download

Island Chimney Range Hood with Optional Blowers, 3-Speed Fan Control, High-Heat Sensor, Halogen Lights, Handcrafted 16 Gauge Material and Baffle Filters

SILVI36SS 36" Width, Brushed Stainless Steel 01/01/2014 - 03/31/2017 Save Up To $800 Instantly Download
SILVI42SS 42" Width, Brushed Stainless Steel 01/01/2014 - 03/31/2017 Save Up To $800 Instantly Download
SILVI48SS 48" Width, Brushed Stainless Steel 01/01/2014 - 03/31/2017 Save Up To $800 Instantly Download
SILVI54SS 54" Width, Brushed Stainless Steel 01/01/2014 - 03/31/2017 Save Up To $800 Instantly Download
SILVI60SS 60" Width, Brushed Stainless Steel 01/01/2014 - 03/31/2017 Save Up To $800 Instantly Download

Brushed Brass Island Hood with 3-Speed Blower Options, Hidden Controls, Baffle Filters and Halogen Lamps

BSLAREI30BB 30" Width 01/01/2014 - 03/31/2017 Save Up To $800 Instantly Download
BSLAREI36BB 36" Width 01/01/2014 - 03/31/2017 Save Up To $800 Instantly Download
BSLAREI42BB 42" Width 01/01/2014 - 03/31/2017 Save Up To $800 Instantly Download
BSLAREI48BB 48" Width 01/01/2014 - 03/31/2017 Save Up To $800 Instantly Download
BSLAREI54BB 54" Width 01/01/2014 - 03/31/2017 Save Up To $800 Instantly Download
BSLAREI60BB 60" Width 01/01/2014 - 03/31/2017 Save Up To $800 Instantly Download
BSLAREI66BB 66" Width 01/01/2014 - 03/31/2017 Save Up To $800 Instantly Download

Wall Mount Hood with 3-Speed Blower Options, 750 Color Options, Hidden Controls, Dishwasher Safe Baffle Filters, Halogen Lamps and Reversible Top/Rear Exhaust

BSBONZ30SS 30" Width 01/01/2014 - 03/31/2017 Save Up To $800 Instantly Download
BSBONZ36SS 36" Width 01/01/2014 - 03/31/2017 Save Up To $800 Instantly Download
BSBONZ42SS 42" Width 01/01/2014 - 03/31/2017 Save Up To $800 Instantly Download
BSBONZ48SS 48" Width 01/01/2014 - 03/31/2017 Save Up To $800 Instantly Download
BSBONZ54SS 54" Width 01/01/2014 - 03/31/2017 Save Up To $800 Instantly Download
BSBONZ60SS 60" Width 01/01/2014 - 03/31/2017 Save Up To $800 Instantly Download
BSBONZ66SS 66" Width 01/01/2014 - 03/31/2017 Save Up To $800 Instantly Download

Wall Mount Canopy Range Hood with Optional Blowers, 3-Speed Fan Control, High-Heat Sensor, Halogen Lights, Handcrafted 16 Gauge Material and Baffle Filters

CONN30SS 30" Width, Brushed Stainless Steel 01/01/2014 - 03/31/2017 Save Up To $800 Instantly Download
CONN36SS 36" Width, Brushed Stainless Steel 01/01/2014 - 03/31/2017 Save Up To $800 Instantly Download
CONN42SS 42" Width, Brushed Stainless Steel 01/01/2014 - 03/31/2017 Save Up To $800 Instantly Download
CONN48SS 48" Width, Brushed Stainless Steel 01/01/2014 - 03/31/2017 Save Up To $800 Instantly Download
CONN54SS 54" Width, Brushed Stainless Steel 01/01/2014 - 03/31/2017 Save Up To $800 Instantly Download
CONN60SS 60" Width, Brushed Stainless Steel 01/01/2014 - 03/31/2017 Save Up To $800 Instantly Download
CONN66SS 66" Width, Brushed Stainless Steel 01/01/2014 - 03/31/2017 Save Up To $800 Instantly Download

Brushed Copper Island Hood with 3-Speed Blower Options, Hidden Controls, Baffle Filters and Halogen Lamps

BSLARAI30BC 30" Width 01/01/2014 - 03/31/2017 Save Up To $800 Instantly Download
BSLARAI36BC 36" Width 01/01/2014 - 03/31/2017 Save Up To $800 Instantly Download
BSLARAI42BC 42" Width 01/01/2014 - 03/31/2017 Save Up To $800 Instantly Download
BSLARAI48BC 48" Width 01/01/2014 - 03/31/2017 Save Up To $800 Instantly Download
BSLARAI54BC 54" Width 01/01/2014 - 03/31/2017 Save Up To $800 Instantly Download
BSLARAI60BC 60" Width 01/01/2014 - 03/31/2017 Save Up To $800 Instantly Download
BSLARAI66BC 66" Width 01/01/2014 - 03/31/2017 Save Up To $800 Instantly Download

Wall Mount Hood with 3-Speed Blower Options, 750 Color Options, Hidden Controls, Dishwasher Safe Baffle Filters, Halogen Lamps and Reversible Top/Rear Exhaust

BSWRAN30SS 30" Width 01/01/2014 - 03/31/2017 Save Up To $800 Instantly Download
BSWRAN36SS 36" Width 01/01/2014 - 03/31/2017 Save Up To $800 Instantly Download
BSWRAN42SS 42" Width 01/01/2014 - 03/31/2017 Save Up To $800 Instantly Download
BSWRAN48SS 48" Width 01/01/2014 - 03/31/2017 Save Up To $800 Instantly Download
BSWRAN54SS 54" Width 01/01/2014 - 03/31/2017 Save Up To $800 Instantly Download
BSWRAN60SS 60" Width 01/01/2014 - 03/31/2017 Save Up To $800 Instantly Download
BSWRAN66SS 66" Width 01/01/2014 - 03/31/2017 Save Up To $800 Instantly Download

Brushed Copper Wall Mount Hood with 3-Speed Blower Options, Hidden Controls, Baffle Filters, Halogen Lamps and Top Discharge

BSMANH24BC 24" Width 01/01/2014 - 03/31/2017 Save Up To $800 Instantly Download
BSMANH30BC 30" Width 01/01/2014 - 03/31/2017 Save Up To $800 Instantly Download
BSMANH36BC 36" Width 01/01/2014 - 03/31/2017 Save Up To $800 Instantly Download
BSMANH42BC 42" Width 01/01/2014 - 03/31/2017 Save Up To $800 Instantly Download
BSMANH48BC 48" Width 01/01/2014 - 03/31/2017 Save Up To $800 Instantly Download
BSMANH54BC 54" Width 01/01/2014 - 03/31/2017 Save Up To $800 Instantly Download
BSMANH60BC 60" Width 01/01/2014 - 03/31/2017 Save Up To $800 Instantly Download
BSMANH66BC 66" Width 01/01/2014 - 03/31/2017 Save Up To $800 Instantly Download

Island Mount Chimney Range Hood with 600 CFM Internal Blower, 3-Speed Fan, 4 Halogen Lights w/ Dimmer, Dishwasher-Safe Frameless Filters and Convertible to Recirculating

HPIB42HS 42 in. Width 01/01/2017 - 12/31/2017 Save Up To $8,346 Instantly Download
HPIB48HS 48 in. Width 01/01/2017 - 12/31/2017 Save Up To $8,346 Instantly Download

Brushed Brass Wall Mount Hood with 3-Speed Blower Options, Hidden Controls, Baffle Filters, Halogen Lamps and Reversible Top/Rear Exhaust

BSLARA30BB 30" Width 01/01/2014 - 03/31/2017 Save Up To $800 Instantly Download
BSLARA36BB 36" Width 01/01/2014 - 03/31/2017 Save Up To $800 Instantly Download
BSLARA42BB 42" Width 01/01/2014 - 03/31/2017 Save Up To $800 Instantly Download
BSLARA48BB 48" Width 01/01/2014 - 03/31/2017 Save Up To $800 Instantly Download
BSLARA54BB 54" Width 01/01/2014 - 03/31/2017 Save Up To $800 Instantly Download
BSLARA60BB 60" Width 01/01/2014 - 03/31/2017 Save Up To $800 Instantly Download
BSLARA66BB 66" Width 01/01/2014 - 03/31/2017 Save Up To $800 Instantly Download

36 Inch Pro-Style Wall Mount Range Hood with 460 CFM Internal Blower, Heat Sensor, Halogen Lights, Baffle Filters, Non-Ducted Option and 10 Inch Height

VWH3610SS Stainless Steel 09/01/2016 - 02/28/2017 Instant Savings of up to $1,579 Download
VWH3610AR Apple Red 09/01/2016 - 02/28/2017 Instant Savings of up to $1,579 Download
VWH3610BK Black 09/01/2016 - 02/28/2017 Instant Savings of up to $1,579 Download
VWH3610BU Burgundy 09/01/2016 - 02/28/2017 Instant Savings of up to $1,579 Download
VWH3610CB Cobalt Blue 09/01/2016 - 02/28/2017 Instant Savings of up to $1,579 Download
VWH3610GG Graphite Gray 09/01/2016 - 02/28/2017 Instant Savings of up to $1,579 Download
VWH3610WH White 09/01/2016 - 02/28/2017 Instant Savings of up to $1,579 Download

Wall Mount Range Hood with Optional Blowers, 3-Speed Fan Control, High-Heat Sensor, Halogen Lights, Handcrafted 16 Gauge Material and Baffle Filters

SAHA30SS 30" Width, Brushed Stainless Steel 01/01/2014 - 03/31/2017 Save Up To $800 Instantly Download
SAHA36SS 36" Width, Brushed Stainless Steel 01/01/2014 - 03/31/2017 Save Up To $800 Instantly Download
SAHA42SS 42" Width, Brushed Stainless Steel 01/01/2014 - 03/31/2017 Save Up To $800 Instantly Download
SAHA48SS 48" Width, Brushed Stainless Steel 01/01/2014 - 03/31/2017 Save Up To $800 Instantly Download
SAHA54SS 54" Width, Brushed Stainless Steel 01/01/2014 - 03/31/2017 Save Up To $800 Instantly Download
SAHA60SS 60" Width, Brushed Stainless Steel 01/01/2014 - 03/31/2017 Save Up To $800 Instantly Download

Wall Mount Hood with 3-Speed 600 CFM Internal Blower, Stainless Steel Construction, 750 Color Options, Hidden Controls, Dishwasher-Safe Filters, Dimming Halogen Lamps and Reversible Top/Rear Exhaust

BSLPL24240 24" Width 01/01/2014 - 03/31/2017 Save Up To $800 Instantly Download
BSLPL30240 30" Width 01/01/2014 - 03/31/2017 Save Up To $800 Instantly Download
BSLPL36240 36" Width 01/01/2014 - 03/31/2017 Save Up To $800 Instantly Download

600 CFM Inline Blower

DHG6015NUC 01/01/2017 - 03/31/2017 Save 10% + $850 on 3+ Piece Kitchen Packages Download

36 Inch Wall Mount Chimney Hood with Separate Blower Option, Auto Function Self-Adjust, Dishwasher-Safe Stainless Steel Baffle Filters, 2 Dimmer Halogen Lights and Electronic Button Controls

HPCN36NS Stainless Steel 01/01/2017 - 12/31/2017 Save Up To $8,346 Instantly Download

700 CFM External Blower

DREBXL 01/01/2017 - 03/31/2017 Save 10% on a Miele Kitchen Package of your choice! Download

Brushed Copper Island Hood with 3-Speed Blower Options, Hidden Controls, Baffle Filters, Halogen Lamps and Top Discharge

BSMANHI24BC 24" Width 01/01/2014 - 03/31/2017 Save Up To $800 Instantly Download
BSMANHI30BC 30" Width 01/01/2014 - 03/31/2017 Save Up To $800 Instantly Download
BSMANHI36BC 36" Width 01/01/2014 - 03/31/2017 Save Up To $800 Instantly Download
BSMANHI42BC 42" Width 01/01/2014 - 03/31/2017 Save Up To $800 Instantly Download
BSMANHI48BC 48" Width 01/01/2014 - 03/31/2017 Save Up To $800 Instantly Download
BSMANHI54BC 54" Width 01/01/2014 - 03/31/2017 Save Up To $800 Instantly Download
BSMANHI60BC 60" Width 01/01/2014 - 03/31/2017 Save Up To $800 Instantly Download
BSMANHI66BC 66" Width 01/01/2014 - 03/31/2017 Save Up To $800 Instantly Download

Wall Mount Chimney Range Hood with Multiple Blower Options, Halogen Lights, 4-Speed Touch Controls and 7 Segment Electronic Display

HMCN36FS 36-Inch 01/01/2017 - 12/31/2017 Save Up To $8,346 Instantly Download
HMCN42FS 42-Inch 01/01/2017 - 12/31/2017 Save Up To $8,346 Instantly Download

60 Inch Wall Mount Chimney Range Hood with Optional Blowers, Variable Fan Speeds, Heat Sensor, Heat Lamps, LED Lighting, LED Knobs and Commercial-Type Filters

VCWH56048SS Stainless Steel 09/01/2016 - 02/28/2017 Instant Savings of up to $1,579 Download
VCWH56048AR Apple Red 09/01/2016 - 02/28/2017 Instant Savings of up to $1,579 Download
VCWH56048BK Black 09/01/2016 - 02/28/2017 Instant Savings of up to $1,579 Download
VCWH56048BU Burgundy 09/01/2016 - 02/28/2017 Instant Savings of up to $1,579 Download
VCWH56048CB Cobalt Blue 09/01/2016 - 02/28/2017 Instant Savings of up to $1,579 Download
VCWH56048GG Graphite Gray 09/01/2016 - 02/28/2017 Instant Savings of up to $1,579 Download
VCWH56048WH White 09/01/2016 - 02/28/2017 Instant Savings of up to $1,579 Download

1,000 CFM Remote Blower

VTR1030P 01/01/2017 - 12/31/2017 Save Up To $8,346 Instantly Download
Sort:
Displaying 121 - 140 of 296 Products
20 40 50 products per page
3 4 5 6 7 8 9 10